Daviess Cnty AP, Washington,, IN

6:04 AM EDT on October 15, 2019 (GMT -0400)
Daviess County

Weather History for KDCY - September, 2019

Change the Weather History Date:

Sunday, September 22, 2019

  Actual Average (KLWV) Record (KLWV)
Temperature  
Mean Temperature 75 °F 67 °F  
Max Temperature 88 °F 80 °F 93 °F (2005)
Min Temperature 62 °F 54 °F 37 °F (1999)
Degree Days  
Heating Degree Days 0 2  
Month to date heating degree days 12  
Since 1 July heating degree days 13  
Cooling Degree Days 10 4  
Month to date cooling degree days 145  
Year to date cooling degree days 1328  
Growing Degree Days 25 (Base 50)    
Moisture  
Dew Point 60 °F    
Average Humidity 62    
Maximum Humidity 99    
Minimum Humidity 39    
Precipitation  
Precipitation 0.05 in 0.10 in 1.35 in (1986)
Month to date precipitation 2.29  
Year to date precipitation 31.64  
Sea Level Pressure  
Sea Level Pressure 30.04 in    
Wind  
Wind Speed 9 mph (SSW)    
Max Wind Speed 18 mph    
Max Gust Speed 28 mph    
Visibility 10 miles    
Events Rain    
T = Trace of Precipitation, MM = Missing Value Source: NWS Daily Summary

Daily Weather History Graph

Daily Weather History Graph

Search for Another Location

Airport or City:

Astronomy

Sep. 22, 2019 Rise Set
Actual Time 7:36 AM EDT 7:45 PM EDT
Civil Twilight 7:09 AM EDT 8:12 PM EDT
Nautical Twilight 6:38 AM EDT 8:43 PM EDT
Astronomical Twilight 6:06 AM EDT 9:14 PM EDT
Moon 12:29 AM EDT (9/22) 3:36 PM EDT (9/22)
Length of Visible Light 13h 02m
Length of Day
12h 09m
Last Quarter, 44% of the Moon is Illuminated
Sep 22
Last Quarter
Sep 28
New
Oct 5
First Quarter
Oct 13
Full
Oct 21
Last Quarter

Hourly Weather History & Observations

Time (EDT) Temp. Heat Index Dew Point Humidity Pressure Visibility Wind Dir Wind Speed Gust Speed Precip Events Conditions
12:15 AM 66.7 °F - 59.0 °F 76% 30.12 in 10.0 mi South 6.9 mph - N/A   Clear
12:35 AM 66.2 °F - 58.5 °F 76% 30.12 in 10.0 mi South 6.9 mph - N/A   Clear
12:55 AM 65.7 °F - 58.5 °F 78% 30.11 in 10.0 mi South 6.9 mph - N/A   Clear
1:15 AM 65.7 °F - 58.1 °F 77% 30.11 in 10.0 mi South 6.9 mph - N/A   Clear
1:35 AM 65.5 °F - 57.7 °F 76% 30.11 in 10.0 mi South 6.9 mph - N/A   Clear
1:55 AM 66.4 °F - 57.7 °F 74% 30.11 in 10.0 mi South 6.9 mph - N/A   Clear
2:15 AM 64.6 °F - 57.4 °F 77% 30.11 in 10.0 mi South 6.9 mph - N/A   Clear
2:35 AM 64.9 °F - 57.4 °F 76% 30.11 in 10.0 mi South 6.9 mph - N/A   Clear
2:55 AM 64.0 °F - 57.2 °F 78% 30.11 in 10.0 mi South 5.8 mph - N/A   Clear
3:15 AM 64.9 °F - 57.4 °F 76% 30.11 in 10.0 mi South 6.9 mph - N/A   Clear
3:35 AM 64.4 °F - 57.2 °F 77% 30.10 in 10.0 mi South 5.8 mph - N/A   Clear
3:55 AM 63.0 °F - 57.2 °F 81% 30.10 in 10.0 mi South 4.6 mph - N/A   Clear
4:15 AM 63.1 °F - 57.2 °F 81% 30.10 in 10.0 mi South 6.9 mph - N/A   Clear
4:35 AM 64.9 °F - 57.2 °F 76% 30.10 in 10.0 mi South 8.1 mph - N/A   Clear
4:55 AM 63.7 °F - 57.4 °F 80% 30.10 in 10.0 mi South 4.6 mph - N/A   Clear
5:15 AM 64.2 °F - 57.4 °F 78% 30.10 in 10.0 mi South 8.1 mph - N/A   Clear
5:35 AM 63.9 °F - 57.4 °F 79% 30.10 in 10.0 mi South 6.9 mph - N/A   Clear
5:55 AM 63.5 °F - 57.2 °F 80% 30.10 in 10.0 mi South 8.1 mph - N/A   Clear
6:15 AM 63.5 °F - 57.2 °F 80% 30.11 in 10.0 mi South 8.1 mph - N/A   Clear
6:35 AM 63.1 °F - 57.4 °F 81% 30.11 in 10.0 mi South 8.1 mph - N/A   Clear
6:55 AM 62.8 °F - 57.4 °F 82% 30.11 in 10.0 mi South 9.2 mph - N/A   Clear
7:15 AM 62.4 °F - 57.4 °F 84% 30.10 in 10.0 mi South 8.1 mph - N/A   Clear
7:35 AM 62.1 °F - 57.6 °F 85% 30.10 in 10.0 mi South 8.1 mph - N/A   Clear
7:55 AM 62.6 °F - 58.1 °F 85% 30.10 in 10.0 mi South 6.9 mph - N/A   Clear
8:15 AM 63.7 °F - 58.5 °F 83% 30.10 in 10.0 mi SSE 6.9 mph - N/A   Clear
8:35 AM 65.5 °F - 59.0 °F 80% 30.10 in 10.0 mi South 6.9 mph - N/A   Clear
8:55 AM 67.6 °F - 59.2 °F 74% 30.10 in 10.0 mi South 8.1 mph - N/A   Clear
9:15 AM 69.6 °F - 59.4 °F 70% 30.10 in 10.0 mi South 9.2 mph - N/A   Clear
9:35 AM 71.8 °F - 59.7 °F 66% 30.10 in 10.0 mi South 9.2 mph - N/A   Clear
9:55 AM 74.1 °F - 59.9 °F 61% 30.11 in 10.0 mi SSW 8.1 mph - N/A   Clear
10:15 AM 74.8 °F - 60.3 °F 60% 30.10 in 10.0 mi SSW 11.5 mph - N/A   Clear
10:35 AM 77.0 °F - 60.6 °F 57% 30.10 in 10.0 mi SSW 10.4 mph 18.4 mph N/A   Clear
10:55 AM 78.8 °F - 60.1 °F 53% 30.10 in 10.0 mi South 12.7 mph 20.7 mph N/A   Clear
11:15 AM 80.6 °F 81.4 °F 60.4 °F 50% 30.09 in 10.0 mi SSW 11.5 mph 19.6 mph N/A   Clear
11:35 AM 81.5 °F 82.0 °F 59.9 °F 48% 30.08 in 10.0 mi South 12.7 mph 19.6 mph N/A   Clear
11:55 AM 82.9 °F 83.2 °F 60.1 °F 46% 30.08 in 10.0 mi SSW 17.3 mph 21.9 mph N/A   Clear
12:15 PM 83.1 °F 83.2 °F 59.9 °F 45% 30.07 in 10.0 mi SW 18.4 mph 24.2 mph N/A   Clear
12:35 PM 84.4 °F 84.4 °F 60.4 °F 44% 30.06 in 10.0 mi SSW 18.4 mph 26.5 mph N/A   Clear
12:55 PM 84.7 °F 84.8 °F 60.8 °F 44% 30.05 in 10.0 mi SSW 16.1 mph 23.0 mph N/A   Scattered Clouds
1:15 PM 85.8 °F 85.9 °F 60.6 °F 43% 30.05 in 10.0 mi SW 16.1 mph 24.2 mph N/A   Scattered Clouds
1:35 PM 85.3 °F 85.2 °F 60.6 °F 43% 30.04 in 10.0 mi SSW 13.8 mph 19.6 mph N/A   Scattered Clouds
1:55 PM 87.3 °F 87.2 °F 61.0 °F 41% 30.03 in 10.0 mi SSW 16.1 mph 21.9 mph N/A   Scattered Clouds
2:15 PM 86.0 °F 86.1 °F 60.8 °F 43% 30.03 in 10.0 mi SW 16.1 mph 21.9 mph N/A   Scattered Clouds
2:35 PM 87.8 °F 87.6 °F 60.6 °F 40% 30.02 in 10.0 mi SW 15.0 mph 27.6 mph N/A   Mostly Cloudy
2:55 PM 87.6 °F 87.7 °F 61.0 °F 41% 30.01 in 10.0 mi SW 15.0 mph 25.3 mph N/A   Mostly Cloudy
3:15 PM 88.2 °F 87.8 °F 60.4 °F 39% 30.00 in 10.0 mi SSW 17.3 mph 26.5 mph N/A   Scattered Clouds
3:55 PM 87.1 °F 87.0 °F 60.4 °F 41% 29.99 in 10.0 mi South 16.1 mph 24.2 mph N/A   Scattered Clouds
4:15 PM 86.9 °F 86.7 °F 60.8 °F 41% 29.98 in 10.0 mi SSW 13.8 mph 24.2 mph N/A   Scattered Clouds
4:35 PM 87.8 °F 87.9 °F 61.3 °F 41% 29.97 in 10.0 mi SSW 13.8 mph 19.6 mph N/A   Scattered Clouds
4:55 PM 87.8 °F 87.6 °F 60.8 °F 40% 29.96 in 10.0 mi South 17.3 mph 23.0 mph N/A   Scattered Clouds
5:15 PM 87.3 °F 87.0 °F 60.3 °F 40% 29.96 in 10.0 mi South 17.3 mph 24.2 mph N/A   Scattered Clouds
5:35 PM 85.8 °F 85.4 °F 59.9 °F 41% 29.95 in 10.0 mi SSW 13.8 mph 23.0 mph N/A   Scattered Clouds
5:55 PM 86.0 °F 86.1 °F 60.8 °F 43% 29.95 in 10.0 mi SSW 9.2 mph - N/A   Scattered Clouds
6:15 PM 86.5 °F 86.5 °F 60.8 °F 42% 29.95 in 10.0 mi SSW 12.7 mph 16.1 mph N/A   Scattered Clouds
6:35 PM 86.0 °F 85.9 °F 60.3 °F 42% 29.95 in 10.0 mi SSW 10.4 mph 19.6 mph N/A   Clear
6:55 PM 84.9 °F 84.8 °F 60.1 °F 43% 29.94 in 10.0 mi SSW 10.4 mph 18.4 mph N/A   Clear
7:15 PM 83.5 °F 83.6 °F 59.9 °F 45% 29.94 in 10.0 mi SSW 9.2 mph - N/A   Scattered Clouds
7:35 PM 81.7 °F 82.2 °F 60.1 °F 48% 29.94 in 10.0 mi South 9.2 mph - N/A   Scattered Clouds
7:55 PM 78.6 °F - 60.4 °F 54% 29.93 in 10.0 mi South 6.9 mph - N/A   Clear
8:15 PM 77.0 °F - 60.8 °F 57% 29.94 in 10.0 mi South 6.9 mph - N/A   Clear
8:35 PM 76.6 °F - 60.8 °F 58% 29.94 in 10.0 mi South 8.1 mph - N/A   Clear
8:55 PM 76.1 °F - 60.8 °F 59% 29.94 in 10.0 mi South 8.1 mph - N/A   Scattered Clouds
9:15 PM 77.5 °F - 60.8 °F 56% 29.95 in 10.0 mi South 8.1 mph - N/A   Mostly Cloudy
9:35 PM 77.2 °F - 60.8 °F 57% 29.95 in 10.0 mi SSW 8.1 mph - N/A   Overcast
9:55 PM 78.1 °F - 61.0 °F 56% 29.95 in 10.0 mi South 8.1 mph - N/A   Overcast
10:15 PM 77.9 °F - 61.0 °F 56% 29.96 in 10.0 mi South 8.1 mph - N/A   Overcast
10:30 PM 77.9 °F - 61.2 °F 56% 29.96 in 10.0 mi South 6.9 mph - N/A   Overcast
10:55 PM 78.1 °F - 61.5 °F 57% 29.96 in 10.0 mi SSW 8.1 mph - N/A   Overcast
11:15 PM 77.2 °F - 63.3 °F 62% 29.97 in 10.0 mi SW 5.8 mph - N/A Rain Light Rain
11:35 PM 71.8 °F - 68.5 °F 89% 30.01 in 7.0 mi West 10.4 mph 16.1 mph N/A Rain Light Rain
11:50 PM 71.2 °F - 71.1 °F 99% 30.01 in 4.0 mi WNW 8.1 mph - 0.05 in Rain Rain